KAGC METAR
PITTSBURGH/ALLEG, PA
Metar
KAGC 121411Z 28010G20KT 3SM -SN BR BKN009 OVC016 M01/M03 A2962 RMK AO2 CIG 007V014 P0000 T10061028

14:11 UTC

Wind: 280° 10kt

Visibility: 3 SM

Sky: BKN 900 ft

Temp: -1 deg C / 30.2 deg F

Dewpoint: -3 deg C / 26.6 deg F

Pressure: 29.62 inHg

TAF
KAGC 121137Z 1212/1312 26012G25KT 6SM -SN OVC010 TEMPO 1212/1215 1SM -SN BKN008 FM121700 28014G27KT P6SM OVC025 FM130100 30015G28KT 2SM -SN OVC010 FM130800 29012G20KT P6SM BKN015